createdAt,value
2018-05-16T00:01:04.521Z,101482.39
2018-05-16T00:04:08.609Z,101473.98
2018-05-16T00:07:11.916Z,101472.69
2018-05-16T00:10:15.251Z,101479.71
2018-05-16T00:13:19.344Z,101475.50
2018-05-16T00:16:23.433Z,101472.97
2018-05-16T00:19:26.732Z,101475.38
2018-05-16T00:22:30.057Z,101466.68
2018-05-16T00:25:33.357Z,101464.72
2018-05-16T00:28:36.677Z,101459.05
2018-05-16T00:31:39.978Z,101461.77
2018-05-16T00:34:43.309Z,101460.78
2018-05-16T00:37:46.610Z,101450.61
2018-05-16T00:40:49.925Z,101450.75
2018-05-16T00:43:53.236Z,101453.08
2018-05-16T00:46:56.558Z,101447.63
2018-05-16T00:49:59.852Z,101450.27
2018-05-16T00:53:03.169Z,101459.81
2018-05-16T00:56:06.473Z,101458.05
2018-05-16T00:59:09.790Z,101462.62
2018-05-16T01:02:13.102Z,101467.48
2018-05-16T01:05:16.421Z,101463.05
2018-05-16T01:08:20.494Z,101457.31
2018-05-16T01:11:23.804Z,101461.11
2018-05-16T01:14:27.145Z,101451.41
2018-05-16T01:17:30.449Z,101450.95
2018-05-16T01:20:33.765Z,101446.38
2018-05-16T01:23:37.093Z,101443.19
2018-05-16T01:26:40.399Z,101441.57
2018-05-16T01:29:44.481Z,101439.45
2018-05-16T01:32:48.554Z,101433.63
2018-05-16T01:35:51.883Z,101439.07
2018-05-16T01:38:55.193Z,101440.62
2018-05-16T01:41:58.501Z,101437.73
2018-05-16T01:45:01.797Z,101436.92
2018-05-16T01:48:05.125Z,101435.80
2018-05-16T01:51:08.424Z,101437.23
2018-05-16T01:54:12.509Z,101430.37
2018-05-16T01:57:15.809Z,101429.84
2018-05-16T02:00:19.129Z,101431.42
2018-05-16T02:03:23.201Z,101424.34
2018-05-16T02:06:26.501Z,101418.23
2018-05-16T02:09:29.818Z,101416.36
2018-05-16T02:12:33.885Z,101416.70
2018-05-16T02:15:37.193Z,101422.88
2018-05-16T02:18:40.493Z,101423.42
2018-05-16T02:21:43.801Z,101419.52
2018-05-16T02:24:47.096Z,101423.41
2018-05-16T02:27:50.405Z,101415.43
2018-05-16T02:30:53.706Z,101412.67
2018-05-16T02:33:57.013Z,101410.30
2018-05-16T02:37:01.098Z,101421.61
2018-05-16T02:40:04.405Z,101415.55
2018-05-16T02:43:07.725Z,101416.13
2018-05-16T02:46:11.794Z,101411.66
2018-05-16T02:49:15.105Z,101409.02
2018-05-16T02:52:18.423Z,101413.28
2018-05-16T02:55:22.511Z,101411.86
2018-05-16T02:58:25.828Z,101412.20
2018-05-16T03:01:29.129Z,101411.08
2018-05-16T03:04:33.202Z,101414.87
2018-05-16T03:07:36.533Z,101415.77
2018-05-16T03:10:39.833Z,101417.61
2018-05-16T03:13:43.153Z,101417.11
2018-05-16T03:16:46.452Z,101413.23
2018-05-16T03:19:49.761Z,101420.78
2018-05-16T03:22:53.110Z,101416.13
2018-05-16T03:25:56.412Z,101422.30
2018-05-16T03:28:59.721Z,101416.45
2018-05-16T03:32:03.792Z,101419.43
2018-05-16T03:35:07.138Z,101416.17
2018-05-16T03:38:10.442Z,101407.07
2018-05-16T03:41:13.758Z,101411.17
2018-05-16T03:44:17.094Z,101410.66
2018-05-16T03:47:20.401Z,101407.63
2018-05-16T03:50:23.730Z,101401.12
2018-05-16T03:53:27.040Z,101408.77
2018-05-16T03:56:30.381Z,101408.16
2018-05-16T03:59:51.294Z,101409.14
2018-05-16T04:03:12.325Z,101409.33
2018-05-16T04:06:16.397Z,101402.12
2018-05-16T04:09:19.721Z,101401.92
2018-05-16T04:12:23.029Z,101401.12
2018-05-16T04:15:27.137Z,101404.75
2018-05-16T04:18:30.453Z,101399.94
2018-05-16T04:21:34.545Z,101404.00
2018-05-16T04:24:37.853Z,101404.76
2018-05-16T04:27:41.941Z,101413.52
2018-05-16T04:30:45.250Z,101409.95
2018-05-16T04:33:48.573Z,101411.45
2018-05-16T04:36:52.653Z,101402.72
2018-05-16T04:39:55.973Z,101406.82
2018-05-16T04:43:00.045Z,101402.03
2018-05-16T04:46:03.377Z,101400.19
2018-05-16T04:49:06.689Z,101399.30
2018-05-16T04:52:10.033Z,101400.89
2018-05-16T04:55:13.349Z,101404.00
2018-05-16T04:58:16.669Z,101407.91
2018-05-16T05:01:20.778Z,101407.20
2018-05-16T05:04:24.143Z,101407.45
2018-05-16T05:07:28.181Z,101413.16
2018-05-16T05:10:31.492Z,101419.34
2018-05-16T05:13:34.821Z,101416.48
2018-05-16T05:16:38.124Z,101422.12
2018-05-16T05:19:41.457Z,101415.09
2018-05-16T05:22:44.760Z,101418.47
2018-05-16T05:25:48.080Z,101410.30
2018-05-16T05:28:51.384Z,101417.85
2018-05-16T05:31:55.473Z,101421.80
2018-05-16T05:34:58.777Z,101420.13
2018-05-16T05:38:02.098Z,101413.45
2018-05-16T05:41:05.381Z,101415.75
2018-05-16T05:44:08.713Z,101412.21
2018-05-16T05:47:12.050Z,101412.98
2018-05-16T05:50:15.351Z,101411.94
2018-05-16T05:53:18.671Z,101416.83
2018-05-16T05:56:22.761Z,101413.64
2018-05-16T05:59:26.070Z,101412.03
2018-05-16T06:02:29.389Z,101409.43
2018-05-16T06:05:32.717Z,101419.34
2018-05-16T06:08:36.017Z,101414.88
2018-05-16T06:11:39.333Z,101413.71
2018-05-16T06:14:42.641Z,101412.75
2018-05-16T06:17:45.981Z,101409.53
2018-05-16T06:20:49.285Z,101412.61
2018-05-16T06:23:52.625Z,101412.38
2018-05-16T06:26:55.935Z,101408.58
2018-05-16T06:29:59.253Z,101407.55
2018-05-16T06:33:03.336Z,101413.94
2018-05-16T06:36:06.648Z,101409.97
2018-05-16T06:39:10.801Z,101410.69
2018-05-16T06:42:14.054Z,101414.81
2018-05-16T06:45:17.381Z,101414.28
2018-05-16T06:48:20.745Z,101424.88
2018-05-16T06:51:24.037Z,101429.33
2018-05-16T06:54:27.345Z,101424.51
2018-05-16T06:57:31.449Z,101431.23
2018-05-16T07:00:34.759Z,101436.42
2018-05-16T07:03:38.853Z,101430.34
2018-05-16T07:06:42.162Z,101427.50
2018-05-16T07:09:45.485Z,101428.68
2018-05-16T07:12:48.796Z,101431.67
2018-05-16T07:15:52.117Z,101431.78
2018-05-16T07:18:55.473Z,101428.79
2018-05-16T07:21:59.557Z,101432.55
2018-05-16T07:25:02.877Z,101438.80
2018-05-16T07:28:06.975Z,101444.60
2018-05-16T07:31:10.289Z,101446.09
2018-05-16T07:34:14.376Z,101443.17
2018-05-16T07:37:17.681Z,101442.05
2018-05-16T07:40:21.018Z,101443.28
2018-05-16T07:43:24.322Z,101446.09
2018-05-16T07:46:27.638Z,101447.89
2018-05-16T07:49:30.969Z,101455.90
2018-05-16T07:52:34.280Z,101445.75
2018-05-16T07:55:38.465Z,101447.14
2018-05-16T07:58:41.765Z,101451.42
2018-05-16T08:01:45.084Z,101448.40
2018-05-16T08:04:49.158Z,101446.78
2018-05-16T08:07:52.492Z,101444.84
2018-05-16T08:10:55.797Z,101448.89
2018-05-16T08:13:59.895Z,101446.97
2018-05-16T08:17:03.263Z,101447.28
2018-05-16T08:20:06.545Z,101444.53
2018-05-16T08:23:09.845Z,101445.59
2018-05-16T08:26:13.139Z,101443.41
2018-05-16T08:29:16.477Z,101441.73
2018-05-16T08:32:19.790Z,101438.41
2018-05-16T08:35:23.885Z,101439.45
2018-05-16T08:38:27.193Z,101437.80
2018-05-16T08:41:30.522Z,101437.14
2018-05-16T08:44:33.827Z,101428.86
2018-05-16T08:47:37.150Z,101440.19
2018-05-16T08:50:40.485Z,101440.42
2018-05-16T08:53:44.558Z,101439.73
2018-05-16T08:56:47.908Z,101439.42
2018-05-16T08:59:51.982Z,101437.50
2018-05-16T09:02:55.318Z,101440.39
2018-05-16T09:05:59.388Z,101440.13
2018-05-16T09:09:02.721Z,101443.84
2018-05-16T09:12:06.033Z,101447.98
2018-05-16T09:15:09.363Z,101452.27
2018-05-16T09:18:12.665Z,101448.25
2018-05-16T09:21:15.984Z,101452.80
2018-05-16T09:24:19.301Z,101460.23
2018-05-16T09:27:23.386Z,101464.06
2018-05-16T09:30:26.698Z,101461.41
2018-05-16T09:33:30.021Z,101460.52
2018-05-16T09:36:34.094Z,101451.95
2018-05-16T09:39:37.421Z,101459.44
2018-05-16T09:42:41.497Z,101464.84
2018-05-16T09:45:44.929Z,101465.98
2018-05-16T09:48:48.909Z,101468.71
2018-05-16T09:51:52.224Z,101457.22
2018-05-16T09:54:55.533Z,101458.30
2018-05-16T09:57:59.633Z,101466.41
2018-05-16T10:01:02.949Z,101465.16
2018-05-16T10:04:07.027Z,101463.90
2018-05-16T10:07:10.349Z,101458.05
2018-05-16T10:10:13.658Z,101452.75
2018-05-16T10:13:17.756Z,101455.34
2018-05-16T10:16:21.061Z,101451.03
2018-05-16T10:19:24.383Z,101447.73
2018-05-16T10:22:27.698Z,101452.38
2018-05-16T10:25:31.083Z,101450.58
2018-05-16T10:28:34.344Z,101445.02
2018-05-16T10:31:37.653Z,101455.11
2018-05-16T10:34:41.721Z,101447.29
2018-05-16T10:37:45.044Z,101445.23
2018-05-16T10:40:48.350Z,101447.25
2018-05-16T10:43:51.684Z,101444.56
2018-05-16T10:46:54.985Z,101440.58
2018-05-16T10:49:58.301Z,101446.08
2018-05-16T10:53:01.605Z,101440.61
2018-05-16T10:56:04.942Z,101445.40
2018-05-16T10:59:09.005Z,101439.97
2018-05-16T11:02:12.345Z,101439.25
2018-05-16T11:05:15.667Z,101442.44
2018-05-16T11:08:19.432Z,101444.05
2018-05-16T11:11:22.733Z,101440.50
2018-05-16T11:14:26.077Z,101443.34
2018-05-16T11:17:29.377Z,101439.55
2018-05-16T11:20:32.697Z,101443.52
2018-05-16T11:23:36.005Z,101437.20
2018-05-16T11:26:39.316Z,101435.20
2018-05-16T11:29:42.628Z,101440.08
2018-05-16T11:32:45.966Z,101433.62
2018-05-16T11:35:49.263Z,101439.00
2018-05-16T11:38:52.686Z,101441.66
2018-05-16T11:41:55.993Z,101431.27
2018-05-16T11:44:59.321Z,101436.84
2018-05-16T11:48:03.353Z,101430.11
2018-05-16T11:51:06.717Z,101427.42
2018-05-16T11:54:10.017Z,101425.98
2018-05-16T11:57:14.109Z,101423.45
2018-05-16T12:00:17.414Z,101428.36
2018-05-16T12:03:20.744Z,101423.64
2018-05-16T12:06:24.821Z,101421.70
2018-05-16T12:09:28.152Z,101419.36
2018-05-16T12:12:31.450Z,101417.50
2018-05-16T12:15:35.545Z,101419.80
2018-05-16T12:18:38.853Z,101404.62
2018-05-16T12:21:42.939Z,101405.30
2018-05-16T12:24:46.219Z,101408.03
2018-05-16T12:27:49.589Z,101405.97
2018-05-16T12:30:52.889Z,101395.22
2018-05-16T12:33:56.278Z,101406.68
2018-05-16T12:36:59.582Z,101403.97
2018-05-16T12:40:02.901Z,101411.55
2018-05-16T12:43:17.922Z,101396.82
2018-05-16T12:46:21.257Z,101405.34
2018-05-16T12:49:24.574Z,101407.70
2018-05-16T12:52:27.868Z,101396.89
2018-05-16T12:55:31.208Z,101401.56
2018-05-16T12:58:35.291Z,101389.27
2018-05-16T13:01:38.708Z,101391.92
2018-05-16T13:04:41.948Z,101385.64
2018-05-16T13:07:45.279Z,101390.67
2018-05-16T13:10:48.590Z,101388.99
2018-05-16T13:13:51.922Z,101387.51
2018-05-16T13:16:55.220Z,101389.36
2018-05-16T13:19:58.537Z,101392.78
2018-05-16T13:23:01.837Z,101386.87
2018-05-16T13:26:05.157Z,101390.17
2018-05-16T13:29:08.470Z,101380.38
2018-05-16T13:32:11.817Z,101386.61
2018-05-16T13:35:15.121Z,101385.98
2018-05-16T13:38:18.438Z,101379.90
2018-05-16T13:41:21.788Z,101378.82
2018-05-16T13:44:25.096Z,101382.51
2018-05-16T13:47:28.427Z,101374.73
2018-05-16T13:50:31.734Z,101377.53
2018-05-16T13:53:35.084Z,101378.58
2018-05-16T13:56:39.180Z,101368.39
2018-05-16T13:59:43.261Z,101369.45
2018-05-16T14:02:46.594Z,101372.87
2018-05-16T14:05:50.668Z,101368.93
2018-05-16T14:08:53.994Z,101359.12
2018-05-16T14:11:58.097Z,101357.53
2018-05-16T14:15:01.410Z,101359.04
2018-05-16T14:18:04.734Z,101364.26
2018-05-16T14:21:08.042Z,101361.12
2018-05-16T14:24:11.365Z,101366.83
2018-05-16T14:27:14.673Z,101361.84
2018-05-16T14:30:18.002Z,101367.89
2018-05-16T14:33:21.325Z,101380.73
2018-05-16T14:36:24.649Z,101377.45
2018-05-16T14:39:27.963Z,101379.34
2018-05-16T14:42:31.292Z,101380.02
2018-05-16T14:45:35.364Z,101381.05
2018-05-16T14:48:38.706Z,101391.67
2018-05-16T14:51:42.020Z,101383.10
2018-05-16T14:54:45.368Z,101379.02
2018-05-16T14:57:48.685Z,101387.31
2018-05-16T15:00:52.866Z,101397.95
2018-05-16T15:03:56.172Z,101405.81
2018-05-16T15:06:59.489Z,101407.64
2018-05-16T15:10:03.563Z,101403.17
2018-05-16T15:13:06.886Z,101402.28
2018-05-16T15:16:10.205Z,101402.17
2018-05-16T15:19:14.318Z,101394.72
2018-05-16T15:22:18.397Z,101394.34
2018-05-16T15:25:21.818Z,101393.91
2018-05-16T15:28:25.136Z,101398.04
2018-05-16T15:31:28.430Z,101395.84
2018-05-16T15:34:31.765Z,101397.36
2018-05-16T15:37:35.115Z,101388.66
2018-05-16T15:40:39.191Z,101391.02
2018-05-16T15:43:42.501Z,101389.76
2018-05-16T15:46:45.856Z,101388.50
2018-05-16T15:49:49.918Z,101387.00
2018-05-16T15:52:53.229Z,101388.93
2018-05-16T15:55:57.344Z,101385.89
2018-05-16T15:59:01.429Z,101388.02
2018-05-16T16:02:04.774Z,101394.03
2018-05-16T16:05:08.081Z,101392.56
2018-05-16T16:08:11.410Z,101391.87
2018-05-16T16:11:14.717Z,101388.83
2018-05-16T16:14:18.041Z,101386.23
2018-05-16T16:17:22.113Z,101392.22
2018-05-16T16:20:25.444Z,101395.73
2018-05-16T16:23:28.744Z,101395.75
2018-05-16T16:26:32.078Z,101401.44
2018-05-16T16:29:35.389Z,101394.01
2018-05-16T16:32:38.733Z,101393.88
2018-05-16T16:35:42.042Z,101396.24
2018-05-16T16:38:46.223Z,101399.71
2018-05-16T16:41:50.249Z,101400.83
2018-05-16T16:44:53.635Z,101396.55
2018-05-16T16:47:57.643Z,101396.98
2018-05-16T16:51:00.949Z,101404.67
2018-05-16T16:54:04.286Z,101407.02
2018-05-16T16:57:07.622Z,101416.98
2018-05-16T17:00:11.027Z,101415.45
2018-05-16T17:03:14.249Z,101416.53
2018-05-16T17:06:17.570Z,101417.08
2018-05-16T17:09:21.645Z,101417.88
2018-05-16T17:12:25.060Z,101418.83
2018-05-16T17:15:29.150Z,101421.58
2018-05-16T17:18:32.517Z,101417.02
2018-05-16T17:21:35.835Z,101424.83
2018-05-16T17:24:39.161Z,101424.27
2018-05-16T17:27:42.476Z,101423.55
2018-05-16T17:30:46.582Z,101420.23
2018-05-16T17:33:50.662Z,101423.50
2018-05-16T17:36:53.981Z,101429.41
2018-05-16T17:39:57.293Z,101430.76
2018-05-16T17:43:01.386Z,101430.70
2018-05-16T17:46:04.746Z,101426.67
2018-05-16T17:49:08.792Z,101429.24
2018-05-16T17:52:12.096Z,101425.56
2018-05-16T17:55:15.421Z,101426.72
2018-05-16T17:58:18.738Z,101420.58
2018-05-16T18:01:22.049Z,101425.77
2018-05-16T18:04:25.377Z,101433.45
2018-05-16T18:07:28.681Z,101438.38
2018-05-16T18:10:32.024Z,101441.73
2018-05-16T18:17:28.424Z,101450.50
2018-05-16T18:20:31.726Z,101454.45
2018-05-16T18:23:35.049Z,101452.83
2018-05-16T18:26:38.348Z,101453.92
2018-05-16T18:29:42.449Z,101455.51
2018-05-16T18:32:45.749Z,101460.09
2018-05-16T18:35:49.071Z,101459.47
2018-05-16T18:38:52.377Z,101463.71
2018-05-16T18:41:55.705Z,101467.86
2018-05-16T18:44:59.004Z,101471.18
2018-05-16T18:48:02.317Z,101480.73
2018-05-16T18:51:05.629Z,101476.03
2018-05-16T18:54:08.957Z,101484.75
2018-05-16T18:57:12.265Z,101492.39
2018-05-16T19:00:15.601Z,101493.20
2018-05-16T19:03:18.904Z,101495.84
2018-05-16T19:06:22.230Z,101502.11
2018-05-16T19:09:25.553Z,101507.72
2018-05-16T19:12:28.868Z,101502.34
2018-05-16T19:15:32.169Z,101505.58
2018-05-16T19:18:35.506Z,101514.88
2018-05-16T19:21:39.585Z,101524.23
2018-05-16T19:24:42.911Z,101524.63
2018-05-16T19:27:46.981Z,101532.72
2018-05-16T19:30:50.337Z,101531.61
2018-05-16T19:33:54.408Z,101530.17
2018-05-16T19:36:57.733Z,101531.32
2018-05-16T19:40:01.263Z,101525.25
2018-05-16T19:43:04.595Z,101522.60
2018-05-16T19:46:07.988Z,101520.05
2018-05-16T19:49:11.257Z,101515.16
2018-05-16T19:52:14.560Z,101517.98
2018-05-16T19:55:17.868Z,101518.94
2018-05-16T19:58:21.176Z,101521.27
2018-05-16T20:01:24.485Z,101523.45
2018-05-16T20:04:27.784Z,101528.95
2018-05-16T20:07:31.109Z,101525.98
2018-05-16T20:10:35.181Z,101518.33
2018-05-16T20:13:38.494Z,101527.27
2018-05-16T20:16:41.808Z,101531.13
2018-05-16T20:19:45.110Z,101534.36
2018-05-16T20:22:49.185Z,101534.55
2018-05-16T20:25:52.496Z,101538.48
2018-05-16T20:28:55.814Z,101538.82
2018-05-16T20:31:59.124Z,101545.23
2018-05-16T20:35:03.224Z,101545.80
2018-05-16T20:38:07.289Z,101540.79
2018-05-16T20:41:10.614Z,101547.58
2018-05-16T20:44:13.918Z,101548.22
2018-05-16T20:47:17.257Z,101547.16
2018-05-16T20:50:20.561Z,101549.46
2018-05-16T20:53:23.868Z,101551.36
2018-05-16T20:56:27.205Z,101563.38
2018-05-16T20:59:30.514Z,101556.61
2018-05-16T21:02:34.610Z,101552.20
2018-05-16T21:05:37.917Z,101552.07
2018-05-16T21:08:41.240Z,101554.77
2018-05-16T21:11:45.305Z,101549.96
2018-05-16T21:14:48.681Z,101559.13
2018-05-16T21:17:51.960Z,101551.39
2018-05-16T21:20:56.162Z,101558.56
2018-05-16T21:24:00.233Z,101563.63
2018-05-16T21:27:03.542Z,101563.52
2018-05-16T21:30:06.869Z,101568.27
2018-05-16T21:33:10.941Z,101571.72
2018-05-16T21:36:14.254Z,101572.03
2018-05-16T21:39:17.539Z,101567.45
2018-05-16T21:42:21.639Z,101564.02
2018-05-16T21:45:25.717Z,101574.53
2018-05-16T21:48:29.022Z,101574.66
2018-05-16T21:51:32.340Z,101580.85
2018-05-16T21:54:35.645Z,101583.28
2018-05-16T21:57:38.965Z,101577.41
2018-05-16T22:00:42.272Z,101574.41
2018-05-16T22:03:45.585Z,101580.50
2018-05-16T22:06:49.656Z,101578.09
2018-05-16T22:09:52.993Z,101587.55
2018-05-16T22:12:56.292Z,101580.30
2018-05-16T22:16:00.386Z,101587.32
2018-05-16T22:19:03.685Z,101585.01
2018-05-16T22:22:07.012Z,101578.38
2018-05-16T22:25:10.311Z,101574.48
2018-05-16T22:28:13.638Z,101580.30
2018-05-16T22:31:22.493Z,101584.17
2018-05-16T22:34:31.293Z,101596.34
2018-05-16T22:37:40.088Z,101597.72
2018-05-16T22:40:48.812Z,101601.95
2018-05-16T22:43:52.941Z,101606.69
2018-05-16T22:46:56.244Z,101595.08
2018-05-16T22:49:59.584Z,101586.27
2018-05-16T22:53:02.892Z,101580.52
2018-05-16T22:56:06.970Z,101585.54
2018-05-16T22:59:10.268Z,101575.72
2018-05-16T23:02:13.590Z,101576.14
2018-05-16T23:05:16.888Z,101574.58
2018-05-16T23:08:20.202Z,101570.20
2018-05-16T23:11:24.272Z,101577.44
2018-05-16T23:14:27.595Z,101572.51
2018-05-16T23:17:31.670Z,101577.33
2018-05-16T23:20:34.987Z,101572.52
2018-05-16T23:23:38.258Z,101565.20
2018-05-16T23:26:41.622Z,101561.92
2018-05-16T23:29:44.929Z,101553.95
2018-05-16T23:32:48.250Z,101545.70
2018-05-16T23:35:51.554Z,101541.63
2018-05-16T23:38:54.877Z,101535.59
2018-05-16T23:41:58.186Z,101538.53
2018-05-16T23:45:02.288Z,101527.00
2018-05-16T23:48:05.592Z,101526.24
2018-05-16T23:51:09.696Z,101536.33
2018-05-16T23:54:12.996Z,101526.72
2018-05-16T23:57:16.321Z,101535.89
